Estación Meteorológica Peña el Pijo (Robertgarden) [ 08/20/17 13:43:00 CEST ]

Fecha Hora Presion(HPa) Temp (°C) Humedad % Rocio (°C) Viento ( m/s) Direccion Lluvia 1Hora(mm) Lluvia 24H(mm) LLuvia Total(mm)
2017-Jun-28 01:01:43 1007.000 18.8 46 6.9         1427.60
2017-Jun-28 02:05:27 1007.300 - - -         1427.60
2017-Jun-28 03:09:09 1006.900 - - - - WNW     1427.60
2017-Jun-28 04:01:31 1006.400 17.8 51 7.5         1427.60
2017-Jun-28 05:09:43 1006.200 - - - - WSW     1427.60
2017-Jun-28 06:08:25 1005.800 15.8 59 7.8 - WSW     1427.60
2017-Jun-28 07:01:50 1006.200 15.3 60 7.6         1427.60
2017-Jun-28 08:01:46 1006.400 17.3 59 9.2 1.1 NNW     1427.60
2017-Jun-28 09:01:52 1006.700 18.6 52 8.5         1427.60
2017-Jun-28 10:01:52 1006.700 20.1 48 8.7 0.8 NW     1427.60
2017-Jun-28 11:01:37 1006.900 21.4 42 7.9         1427.60
2017-Jun-28 12:01:41 1006.800 23.3 37 7.7         1427.60
2017-Jun-28 13:01:36 1006.700 25.1 33 7.6         1427.60
2017-Jun-28 14:01:38 1006.800 23.3 40 9.0 0.7 N     1427.60
2017-Jun-28 15:01:56 1006.600 21.8 44 8.9         1427.60
2017-Jun-28 16:01:54 1006.400 23.4 41 9.4         1427.60
2017-Jun-28 17:01:55 1005.700 25.2 37 9.4         1427.60
2017-Jun-28 18:01:49 1005.300 24.9 37 9.1 0.4 S     1427.60
2017-Jun-28 19:01:50 1004.700 25.0 36 8.8         1427.60
2017-Jun-28 20:01:47 1004.900 23.0 41 8.7         1427.60
2017-Jun-28 21:01:31 1005.000 20.8 47 9.0         1427.60
2017-Jun-28 22:01:09 1005.100 20.1 50 9.4 1.1 N     1427.60
2017-Jun-28 23:01:23 1005.600 19.6 54 10.0 3.3 N     1427.60

Temperatura Máxima:25°    Temperatura Mínima:
Presión Máxima:1007.300 Hpa    Presión Mínima:1004.700 Hpa


Volver